Time;durP1;ratioP1;P1;durP2;ratioP2;P2;SDS_P1;SDS_P2;PMS_P1;PMS_P2;Temp;Humidity;BMP_temperature;BMP_pressure;BME280_temperature;BME280_humidity;BME280_pressure;Samples;Min_cycle;Max_cycle;Signal;HPM_P1;HPM_P2
2023/09/19 00:00:46;;;;;;;16.73;7.88;;;;;;;;;;5037168;28;20205;-44
2023/09/19 00:03:37;;;;;;;15.45;7.60;;;;;;;;;;5037505;28;20297;-45
2023/09/19 00:06:07;;;;;;;12.82;7.40;;;;;;;;;;5037050;28;20250;-44
2023/09/19 00:08:34;;;;;;;13.75;7.22;;;;;;;;;;5037383;28;20212;-46
2023/09/19 00:11:03;;;;;;;12.98;7.13;;;;;;;;;;5036966;28;20259;-45
2023/09/19 00:13:30;;;;;;;13.63;7.95;;;;;;;;;;5036861;28;20255;-44
2023/09/19 00:15:58;;;;;;;16.48;8.10;;;;;;;;;;5037087;28;20247;-45
2023/09/19 00:18:29;;;;;;;13.90;8.10;;;;;;;;;;5036753;28;20574;-44
2023/09/19 00:20:59;;;;;;;14.52;8.20;;;;;;;;;;5037054;28;20271;-44
2023/09/19 00:23:28;;;;;;;15.15;7.88;;;;;;;;;;5036880;28;20200;-44
2023/09/19 00:26:00;;;;;;;12.85;7.50;;;;;;;;;;5036655;28;20205;-44
2023/09/19 00:28:29;;;;;;;14.38;7.28;;;;;;;;;;5036973;28;20580;-45
2023/09/19 00:31:01;;;;;;;15.02;7.25;;;;;;;;;;5036658;28;20208;-45
2023/09/19 00:33:29;;;;;;;11.40;7.10;;;;;;;;;;5036985;28;20211;-44
2023/09/19 00:35:57;;;;;;;13.70;7.15;;;;;;;;;;5036310;28;20228;-44
2023/09/19 00:38:26;;;;;;;15.85;7.68;;;;;;;;;;5019130;28;20196;-44
2023/09/19 00:40:56;;;;;;;14.50;7.05;;;;;;;;;;5036987;28;20262;-44
2023/09/19 00:43:27;;;;;;;11.70;7.22;;;;;;;;;;5036707;28;20232;-44
2023/09/19 00:45:56;;;;;;;12.88;7.13;;;;;;;;;;5036167;28;20205;-44
2023/09/19 00:48:27;;;;;;;14.48;7.57;;;;;;;;;;5036421;28;20201;-44
2023/09/19 00:50:57;;;;;;;19.45;8.50;;;;;;;;;;5019320;28;20208;-44
2023/09/19 00:53:25;;;;;;;15.68;8.32;;;;;;;;;;5018574;28;20209;-45
2023/09/19 00:55:54;;;;;;;15.38;8.30;;;;;;;;;;5036229;28;20324;-43
2023/09/19 00:58:21;;;;;;;14.40;7.80;;;;;;;;;;5018619;28;20200;-46
2023/09/19 01:00:49;;;;;;;14.45;7.38;;;;;;;;;;5035704;28;20197;-46
2023/09/19 01:03:18;;;;;;;16.27;7.43;;;;;;;;;;5018945;28;20238;-44
2023/09/19 01:05:46;;;;;;;13.38;7.40;;;;;;;;;;5036110;28;20254;-45
2023/09/19 01:08:13;;;;;;;16.35;8.07;;;;;;;;;;5018374;28;20201;-44
2023/09/19 01:11:05;;;;;;;14.85;7.72;;;;;;;;;;5036130;28;20204;-45
2023/09/19 01:13:43;;;;;;;13.10;7.97;;;;;;;;;;5035662;28;20585;-45
2023/09/19 01:16:35;;;;;;;12.32;7.20;;;;;;;;;;5036057;28;20211;-45
2023/09/19 01:19:26;;;;;;;14.32;8.30;;;;;;;;;;5018813;28;20780;-44
2023/09/19 01:22:24;;;;;;;14.52;7.95;;;;;;;;;;4995792;28;20205;-45
2023/09/19 01:25:25;;;;;;;14.40;7.60;;;;;;;;;;5034402;28;20231;-45
2023/09/19 01:27:52;;;;;;;16.75;8.63;;;;;;;;;;5033532;28;20204;-46
2023/09/19 01:30:22;;;;;;;16.73;8.27;;;;;;;;;;5033886;28;20211;-45
2023/09/19 01:32:52;;;;;;;14.98;7.38;;;;;;;;;;5033666;28;20570;-45
2023/09/19 01:35:19;;;;;;;14.93;8.48;;;;;;;;;;5000100;28;20291;-45
2023/09/19 01:37:46;;;;;;;13.98;6.97;;;;;;;;;;5015734;28;20303;-45
2023/09/19 01:40:18;;;;;;;18.15;7.57;;;;;;;;;;5033740;28;20224;-46
2023/09/19 01:43:07;;;;;;;14.57;7.78;;;;;;;;;;5032007;28;20229;-46
2023/09/19 01:46:06;;;;;;;13.80;8.05;;;;;;;;;;5033251;28;20685;-49
2023/09/19 01:48:47;;;;;;;14.80;7.18;;;;;;;;;;5035118;28;20196;-45
2023/09/19 01:51:20;;;;;;;12.75;8.13;;;;;;;;;;5035400;28;20211;-44
2023/09/19 01:54:02;;;;;;;14.80;7.97;;;;;;;;;;5017475;28;20209;-45
2023/09/19 01:56:35;;;;;;;12.50;7.72;;;;;;;;;;5001493;28;20251;-46
2023/09/19 01:59:11;;;;;;;11.75;7.18;;;;;;;;;;5018184;28;20549;-46
2023/09/19 02:01:38;;;;;;;14.38;7.68;;;;;;;;;;5001296;28;20204;-44
2023/09/19 02:04:07;;;;;;;13.80;7.82;;;;;;;;;;5034945;28;20208;-45
2023/09/19 02:06:34;;;;;;;15.13;7.82;;;;;;;;;;5034719;28;20244;-45
2023/09/19 02:09:02;;;;;;;18.85;7.85;;;;;;;;;;5001329;28;20197;-44
2023/09/19 02:11:29;;;;;;;13.88;8.00;;;;;;;;;;5016331;28;20537;-45
2023/09/19 02:13:57;;;;;;;16.33;7.60;;;;;;;;;;5017180;28;20201;-44
2023/09/19 02:16:25;;;;;;;15.95;7.57;;;;;;;;;;5034700;28;20311;-45
2023/09/19 02:18:52;;;;;;;15.90;8.20;;;;;;;;;;5034846;28;20552;-46
2023/09/19 02:21:21;;;;;;;11.07;7.30;;;;;;;;;;5016963;28;20205;-44
2023/09/19 02:23:49;;;;;;;12.68;7.63;;;;;;;;;;5017249;28;20209;-44
2023/09/19 02:26:16;;;;;;;16.45;8.70;;;;;;;;;;5034646;28;20214;-45
2023/09/19 02:28:43;;;;;;;14.70;8.00;;;;;;;;;;5034623;28;20201;-44
2023/09/19 02:31:10;;;;;;;13.70;7.50;;;;;;;;;;5016974;28;20227;-44
2023/09/19 02:33:38;;;;;;;13.55;7.35;;;;;;;;;;5034394;28;20193;-45
2023/09/19 02:36:06;;;;;;;14.40;7.70;;;;;;;;;;5034428;28;20208;-44
2023/09/19 02:38:33;;;;;;;15.60;7.63;;;;;;;;;;5034251;28;20231;-45
2023/09/19 02:41:01;;;;;;;15.05;7.18;;;;;;;;;;5016739;28;20215;-45
2023/09/19 02:43:28;;;;;;;11.88;7.55;;;;;;;;;;5034484;28;20233;-44
2023/09/19 02:45:56;;;;;;;11.98;7.55;;;;;;;;;;5034013;28;20581;-45
2023/09/19 02:48:25;;;;;;;13.20;7.63;;;;;;;;;;5032769;28;20212;-44
2023/09/19 02:50:52;;;;;;;13.85;7.72;;;;;;;;;;5033051;28;20262;-45
2023/09/19 02:53:20;;;;;;;14.63;7.93;;;;;;;;;;5033887;28;20212;-45
2023/09/19 02:55:48;;;;;;;13.48;7.70;;;;;;;;;;5033889;28;20645;-44
2023/09/19 02:58:15;;;;;;;13.55;7.50;;;;;;;;;;5034290;28;20240;-45
2023/09/19 03:00:47;;;;;;;17.30;7.75;;;;;;;;;;5033958;28;20208;-45
2023/09/19 03:03:16;;;;;;;14.68;8.43;;;;;;;;;;5033998;28;20205;-45
2023/09/19 03:05:46;;;;;;;14.10;7.97;;;;;;;;;;5016205;28;20729;-45
2023/09/19 03:08:16;;;;;;;11.30;7.60;;;;;;;;;;5016387;28;20201;-45
2023/09/19 03:10:47;;;;;;;15.73;7.55;;;;;;;;;;5016231;28;20617;-45
2023/09/19 03:13:15;;;;;;;14.93;7.68;;;;;;;;;;5032430;28;20208;-45
2023/09/19 03:15:50;;;;;;;13.50;7.28;;;;;;;;;;5016247;28;20211;-45
2023/09/19 03:18:23;;;;;;;13.43;7.65;;;;;;;;;;5016523;28;20216;-45
2023/09/19 03:20:54;;;;;;;13.93;8.05;;;;;;;;;;5015850;28;20200;-46
2023/09/19 03:23:23;;;;;;;12.85;8.25;;;;;;;;;;5033197;28;20634;-44
2023/09/19 03:25:52;;;;;;;12.38;7.60;;;;;;;;;;5015690;28;20622;-45
2023/09/19 03:28:21;;;;;;;12.93;7.93;;;;;;;;;;5015920;28;20216;-45
2023/09/19 03:31:03;;;;;;;11.68;7.05;;;;;;;;;;5018510;28;20292;-45
2023/09/19 03:33:33;;;;;;;13.77;7.40;;;;;;;;;;5046586;28;20222;-45
2023/09/19 03:36:04;;;;;;;14.13;7.75;;;;;;;;;;5033891;28;20227;-46
2023/09/19 03:38:34;;;;;;;11.07;7.47;;;;;;;;;;5034895;28;20298;-44
2023/09/19 03:41:02;;;;;;;12.30;8.02;;;;;;;;;;5035352;28;20203;-44
2023/09/19 03:43:29;;;;;;;11.23;7.63;;;;;;;;;;5053155;28;20232;-44
2023/09/19 03:46:02;;;;;;;17.10;8.32;;;;;;;;;;5044206;28;20201;-45
2023/09/19 03:48:31;;;;;;;14.73;7.88;;;;;;;;;;5031997;28;20204;-46
2023/09/19 03:50:58;;;;;;;14.02;7.88;;;;;;;;;;5031789;28;20291;-45
2023/09/19 03:53:26;;;;;;;16.17;8.02;;;;;;;;;;5043323;28;20199;-48
2023/09/19 03:55:53;;;;;;;14.15;8.25;;;;;;;;;;5022618;28;20208;-45
2023/09/19 03:58:20;;;;;;;12.23;7.60;;;;;;;;;;5017535;28;20232;-44
2023/09/19 04:00:49;;;;;;;12.88;7.78;;;;;;;;;;5015291;28;20556;-43
2023/09/19 04:03:20;;;;;;;16.70;9.05;;;;;;;;;;5032873;28;20216;-44
2023/09/19 04:05:48;;;;;;;17.33;9.15;;;;;;;;;;5026989;28;20230;-43
2023/09/19 04:08:15;;;;;;;15.18;8.60;;;;;;;;;;5052880;28;20212;-44
2023/09/19 04:10:43;;;;;;;15.15;8.30;;;;;;;;;;5034476;28;20221;-44
2023/09/19 04:13:11;;;;;;;17.35;8.25;;;;;;;;;;5040197;28;20258;-44
2023/09/19 04:15:40;;;;;;;15.20;8.82;;;;;;;;;;5034125;28;20209;-46
2023/09/19 04:18:07;;;;;;;14.48;7.93;;;;;;;;;;5034311;28;20244;-44
2023/09/19 04:20:35;;;;;;;15.48;8.82;;;;;;;;;;5033543;28;20643;-45
2023/09/19 04:23:02;;;;;;;14.32;8.30;;;;;;;;;;5031570;28;20258;-44
2023/09/19 04:25:29;;;;;;;17.52;8.20;;;;;;;;;;5041666;28;20290;-44
2023/09/19 04:27:57;;;;;;;13.18;7.72;;;;;;;;;;5034396;28;20232;-44
2023/09/19 04:30:25;;;;;;;14.15;8.00;;;;;;;;;;5033662;28;20231;-43
2023/09/19 04:32:53;;;;;;;15.80;8.45;;;;;;;;;;5052210;28;20239;-43
2023/09/19 04:35:20;;;;;;;13.60;7.45;;;;;;;;;;5054034;28;20789;-45
2023/09/19 04:37:48;;;;;;;14.38;7.90;;;;;;;;;;5055161;28;20227;-46
2023/09/19 04:40:17;;;;;;;14.98;8.18;;;;;;;;;;5055081;28;20248;-45
2023/09/19 04:42:45;;;;;;;14.00;8.00;;;;;;;;;;5037787;28;20240;-44
2023/09/19 04:45:14;;;;;;;15.25;8.20;;;;;;;;;;5054851;28;20228;-45
2023/09/19 04:47:43;;;;;;;12.45;7.85;;;;;;;;;;5054321;28;20224;-44
2023/09/19 04:50:13;;;;;;;12.75;7.72;;;;;;;;;;5053668;28;20231;-44
2023/09/19 04:52:44;;;;;;;13.30;7.70;;;;;;;;;;5051709;28;20243;-43
2023/09/19 04:55:18;;;;;;;13.68;8.07;;;;;;;;;;5037181;28;20224;-44
2023/09/19 04:57:49;;;;;;;17.17;7.40;;;;;;;;;;5053986;28;20522;-44
2023/09/19 05:00:19;;;;;;;13.70;7.47;;;;;;;;;;5054149;28;20712;-45
2023/09/19 05:02:46;;;;;;;14.13;8.60;;;;;;;;;;5055335;28;20220;-43
2023/09/19 05:05:17;;;;;;;14.65;8.32;;;;;;;;;;5055407;28;20232;-45
2023/09/19 05:07:45;;;;;;;13.25;7.55;;;;;;;;;;5055421;28;20227;-44
2023/09/19 05:10:13;;;;;;;13.38;7.60;;;;;;;;;;5054744;28;20637;-43
2023/09/19 05:12:41;;;;;;;13.02;7.32;;;;;;;;;;5054985;28;20227;-43
2023/09/19 05:15:08;;;;;;;12.75;8.00;;;;;;;;;;5055269;28;20224;-44
2023/09/19 05:17:36;;;;;;;12.45;7.63;;;;;;;;;;5055449;28;20224;-44
2023/09/19 05:20:24;;;;;;;12.98;7.13;;;;;;;;;;5054740;28;20204;-45
2023/09/19 05:22:58;;;;;;;11.13;7.25;;;;;;;;;;5054553;28;20243;-43
2023/09/19 05:25:29;;;;;;;13.80;7.18;;;;;;;;;;5054244;28;20187;-43
2023/09/19 05:27:57;;;;;;;12.55;7.32;;;;;;;;;;5055223;28;20246;-44
2023/09/19 05:30:27;;;;;;;14.25;8.07;;;;;;;;;;5055541;28;20199;-43
2023/09/19 05:32:54;;;;;;;12.25;7.68;;;;;;;;;;5055319;28;20208;-43
2023/09/19 05:35:22;;;;;;;12.75;6.90;;;;;;;;;;5055222;28;20668;-43
2023/09/19 05:37:55;;;;;;;12.80;7.75;;;;;;;;;;5055399;28;20232;-43
2023/09/19 05:40:23;;;;;;;17.50;7.70;;;;;;;;;;5055646;28;20203;-43
2023/09/19 05:42:50;;;;;;;13.10;7.03;;;;;;;;;;5055479;28;20285;-44
2023/09/19 05:45:24;;;;;;;16.83;7.57;;;;;;;;;;5054864;28;20218;-44
2023/09/19 05:47:55;;;;;;;13.45;6.85;;;;;;;;;;5055119;28;20212;-44
2023/09/19 05:50:24;;;;;;;12.10;7.30;;;;;;;;;;5055507;28;20235;-44
2023/09/19 05:52:52;;;;;;;11.50;7.05;;;;;;;;;;5055117;28;20286;-43
2023/09/19 05:55:20;;;;;;;13.35;7.72;;;;;;;;;;5054988;28;20203;-44
2023/09/19 05:57:51;;;;;;;10.77;6.50;;;;;;;;;;5055060;28;20227;-44
2023/09/19 06:00:22;;;;;;;14.23;7.07;;;;;;;;;;5054886;28;20695;-46
2023/09/19 06:02:59;;;;;;;11.43;6.65;;;;;;;;;;5055125;28;20203;-44
2023/09/19 06:05:27;;;;;;;14.52;7.45;;;;;;;;;;5055114;28;20204;-43
2023/09/19 06:07:54;;;;;;;14.55;7.60;;;;;;;;;;5054761;28;20203;-44
2023/09/19 06:10:23;;;;;;;11.68;6.90;;;;;;;;;;5054654;28;20204;-43
2023/09/19 06:12:50;;;;;;;14.70;6.75;;;;;;;;;;5054626;28;20208;-43
2023/09/19 06:15:22;;;;;;;14.85;6.97;;;;;;;;;;5054691;28;20265;-43
2023/09/19 06:17:51;;;;;;;10.07;6.57;;;;;;;;;;5054469;28;20219;-44
2023/09/19 06:20:19;;;;;;;10.27;6.80;;;;;;;;;;5054692;28;20246;-45
2023/09/19 06:22:47;;;;;;;11.80;6.80;;;;;;;;;;5054369;28;20204;-44
2023/09/19 06:25:21;;;;;;;11.85;7.00;;;;;;;;;;5054407;28;20207;-43
2023/09/19 06:27:56;;;;;;;10.75;6.18;;;;;;;;;;5054617;28;20199;-44
2023/09/19 06:30:28;;;;;;;12.48;7.22;;;;;;;;;;5054604;28;20265;-44
2023/09/19 06:32:56;;;;;;;9.60;6.22;;;;;;;;;;5054402;28;20210;-44
2023/09/19 06:35:26;;;;;;;11.02;6.68;;;;;;;;;;5054221;28;20201;-44
2023/09/19 06:37:53;;;;;;;10.30;6.28;;;;;;;;;;5054061;28;20625;-44
2023/09/19 06:40:21;;;;;;;11.73;6.80;;;;;;;;;;5054302;28;20211;-44
2023/09/19 06:42:51;;;;;;;11.25;6.43;;;;;;;;;;5053847;28;20314;-43
2023/09/19 06:45:18;;;;;;;10.18;6.13;;;;;;;;;;5054206;28;20208;-44
2023/09/19 06:47:50;;;;;;;9.00;5.90;;;;;;;;;;5054214;28;20203;-45
2023/09/19 06:50:19;;;;;;;11.68;5.97;;;;;;;;;;5054234;28;20269;-43
2023/09/19 06:52:51;;;;;;;9.30;6.43;;;;;;;;;;5054117;28;20286;-43
2023/09/19 06:55:19;;;;;;;11.93;6.45;;;;;;;;;;5037051;28;20584;-44
2023/09/19 06:57:47;;;;;;;10.43;5.78;;;;;;;;;;5053109;28;20216;-44
2023/09/19 07:00:18;;;;;;;10.55;6.05;;;;;;;;;;5053730;28;20204;-44
2023/09/19 07:02:45;;;;;;;8.65;5.45;;;;;;;;;;5054259;28;20208;-43
2023/09/19 07:05:13;;;;;;;9.48;5.88;;;;;;;;;;5053872;28;20227;-44
2023/09/19 07:07:40;;;;;;;10.45;5.70;;;;;;;;;;5053793;28;20298;-44
2023/09/19 07:10:10;;;;;;;12.40;5.93;;;;;;;;;;5053954;28;20208;-45
2023/09/19 07:12:38;;;;;;;8.65;5.50;;;;;;;;;;5053527;28;20200;-44
2023/09/19 07:15:05;;;;;;;13.85;6.18;;;;;;;;;;5053593;28;20204;-44
2023/09/19 07:17:33;;;;;;;10.98;5.47;;;;;;;;;;5053653;28;20257;-44
2023/09/19 07:20:00;;;;;;;10.60;5.80;;;;;;;;;;5053441;28;20215;-44
2023/09/19 07:22:27;;;;;;;12.55;6.43;;;;;;;;;;5053440;28;20661;-45
2023/09/19 07:24:55;;;;;;;10.10;5.40;;;;;;;;;;5053425;28;20265;-43
2023/09/19 07:27:22;;;;;;;7.50;5.03;;;;;;;;;;5053435;28;20204;-45
2023/09/19 07:29:49;;;;;;;8.43;5.28;;;;;;;;;;5053240;28;20684;-44
2023/09/19 07:32:19;;;;;;;7.65;4.85;;;;;;;;;;5053431;28;20290;-44
2023/09/19 07:34:47;;;;;;;8.45;4.97;;;;;;;;;;5053495;28;20208;-44
2023/09/19 07:37:15;;;;;;;9.30;5.47;;;;;;;;;;5053265;28;20200;-44
2023/09/19 07:39:44;;;;;;;7.80;5.05;;;;;;;;;;5053062;28;20711;-45
2023/09/19 07:42:17;;;;;;;8.23;4.80;;;;;;;;;;5052967;28;20771;-45
2023/09/19 07:44:47;;;;;;;7.40;4.75;;;;;;;;;;5053442;28;20200;-44
2023/09/19 07:47:14;;;;;;;8.55;5.28;;;;;;;;;;5053466;28;20282;-44
2023/09/19 07:49:42;;;;;;;5.80;4.65;;;;;;;;;;5053058;28;20214;-44
2023/09/19 07:52:10;;;;;;;7.03;5.18;;;;;;;;;;5053151;28;20203;-46
2023/09/19 07:54:38;;;;;;;8.05;5.35;;;;;;;;;;5053167;28;20204;-43
2023/09/19 07:57:05;;;;;;;12.20;5.50;;;;;;;;;;5053287;28;20203;-44
2023/09/19 07:59:33;;;;;;;7.60;5.03;;;;;;;;;;5052957;28;20223;-43
2023/09/19 08:02:00;;;;;;;10.50;4.47;;;;;;;;;;5053019;28;20203;-44
2023/09/19 08:04:30;;;;;;;10.35;5.15;;;;;;;;;;5053340;28;20196;-44
2023/09/19 08:07:00;;;;;;;12.57;4.88;;;;;;;;;;5053079;28;20200;-44
2023/09/19 08:09:27;;;;;;;8.73;4.85;;;;;;;;;;5055889;28;20261;-45
2023/09/19 08:11:55;;;;;;;11.13;5.38;;;;;;;;;;5056876;28;20204;-44
2023/09/19 08:14:24;;;;;;;8.38;5.32;;;;;;;;;;5057237;28;20200;-44
2023/09/19 08:16:56;;;;;;;9.75;5.05;;;;;;;;;;5056955;28;20238;-44
2023/09/19 08:19:28;;;;;;;17.00;5.20;;;;;;;;;;5057013;28;20216;-43
2023/09/19 08:21:58;;;;;;;7.93;4.80;;;;;;;;;;5056795;28;20210;-44
2023/09/19 08:24:28;;;;;;;10.10;4.90;;;;;;;;;;5057058;28;20207;-44
2023/09/19 08:26:56;;;;;;;7.53;4.90;;;;;;;;;;5056667;28;20555;-44
2023/09/19 08:29:28;;;;;;;7.85;4.82;;;;;;;;;;5043789;28;20215;-46
2023/09/19 08:31:55;;;;;;;6.57;4.43;;;;;;;;;;5036143;28;20229;-44
2023/09/19 08:34:26;;;;;;;7.18;4.75;;;;;;;;;;5035356;28;20197;-44
2023/09/19 08:36:57;;;;;;;6.43;4.60;;;;;;;;;;5036197;28;20185;-45
2023/09/19 08:39:25;;;;;;;16.17;5.50;;;;;;;;;;5036555;28;20236;-44
2023/09/19 08:41:59;;;;;;;6.63;4.43;;;;;;;;;;5036347;28;20760;-43
2023/09/19 08:44:30;;;;;;;10.82;4.88;;;;;;;;;;5036476;28;20197;-44
2023/09/19 08:47:16;;;;;;;6.60;4.68;;;;;;;;;;5036348;28;20272;-43
2023/09/19 08:50:03;;;;;;;6.50;4.28;;;;;;;;;;5034589;28;20201;-43
2023/09/19 08:52:41;;;;;;;7.35;5.03;;;;;;;;;;5035231;28;20586;-43
2023/09/19 08:55:12;;;;;;;8.30;4.43;;;;;;;;;;5036205;28;20212;-45
2023/09/19 08:57:41;;;;;;;8.90;4.18;;;;;;;;;;5036517;28;20209;-44
2023/09/19 09:00:10;;;;;;;7.50;4.07;;;;;;;;;;5036579;28;20228;-45
2023/09/19 09:02:41;;;;;;;6.07;4.57;;;;;;;;;;5036420;28;20201;-44
2023/09/19 09:05:11;;;;;;;12.82;4.75;;;;;;;;;;5036028;28;20189;-43
2023/09/19 09:07:40;;;;;;;8.95;4.63;;;;;;;;;;5035156;28;20200;-43
2023/09/19 09:10:08;;;;;;;10.23;4.80;;;;;;;;;;5035847;28;20742;-43
2023/09/19 09:12:41;;;;;;;6.78;4.15;;;;;;;;;;5035086;28;20291;-44
2023/09/19 09:15:11;;;;;;;9.75;4.97;;;;;;;;;;5036232;28;20212;-43
2023/09/19 09:17:38;;;;;;;10.95;4.68;;;;;;;;;;5036090;28;20662;-43
2023/09/19 09:20:07;;;;;;;8.30;4.40;;;;;;;;;;5035128;28;20229;-44
2023/09/19 09:22:36;;;;;;;8.10;4.50;;;;;;;;;;5036020;28;20208;-45
2023/09/19 09:25:04;;;;;;;7.85;4.47;;;;;;;;;;5035665;28;20204;-43
2023/09/19 09:27:34;;;;;;;12.88;4.50;;;;;;;;;;5035620;28;20231;-44
2023/09/19 09:30:01;;;;;;;6.63;4.57;;;;;;;;;;5035632;28;20266;-43
2023/09/19 09:32:33;;;;;;;12.77;4.68;;;;;;;;;;5034497;28;20287;-45
2023/09/19 09:35:01;;;;;;;7.43;4.57;;;;;;;;;;5035519;28;20216;-45
2023/09/19 09:37:30;;;;;;;11.60;4.30;;;;;;;;;;5035490;28;20294;-44
2023/09/19 09:42:41;;;;;;;6.45;4.40;;;;;;;;;;5035769;28;20269;-45
2023/09/19 09:48:03;;;;;;;11.02;4.30;;;;;;;;;;5035571;28;20212;-44
2023/09/19 09:50:50;;;;;;;6.72;4.18;;;;;;;;;;5035694;28;20196;-43
2023/09/19 09:53:27;;;;;;;6.57;4.40;;;;;;;;;;5035198;28;20266;-44
2023/09/19 09:56:09;;;;;;;10.30;4.40;;;;;;;;;;5035384;28;20213;-44
2023/09/19 09:58:40;;;;;;;6.22;4.55;;;;;;;;;;5035262;28;20283;-44
2023/09/19 10:01:15;;;;;;;7.13;4.55;;;;;;;;;;5035213;28;20208;-46
2023/09/19 10:03:49;;;;;;;8.70;4.63;;;;;;;;;;5034919;28;20609;-45
2023/09/19 10:09:12;;;;;;;9.27;4.63;;;;;;;;;;5034887;28;20742;-44
2023/09/19 10:11:43;;;;;;;7.68;4.88;;;;;;;;;;5035023;28;20201;-45
2023/09/19 10:14:15;;;;;;;6.93;5.07;;;;;;;;;;5034757;28;20201;-45
2023/09/19 10:16:47;;;;;;;6.68;5.20;;;;;;;;;;5034707;28;20200;-44
2023/09/19 10:19:22;;;;;;;8.35;5.07;;;;;;;;;;5034895;28;20319;-44
2023/09/19 10:21:51;;;;;;;7.80;5.35;;;;;;;;;;5034978;28;20180;-45
2023/09/19 10:24:19;;;;;;;7.05;5.03;;;;;;;;;;5033376;28;20227;-43
2023/09/19 10:26:46;;;;;;;9.95;5.20;;;;;;;;;;5033313;28;20213;-44
2023/09/19 10:29:14;;;;;;;11.32;4.97;;;;;;;;;;5034472;28;20216;-45
2023/09/19 10:31:47;;;;;;;12.07;5.13;;;;;;;;;;5033753;28;20204;-45
2023/09/19 10:34:15;;;;;;;9.18;5.10;;;;;;;;;;5034462;28;20596;-44
2023/09/19 10:36:48;;;;;;;7.80;4.88;;;;;;;;;;5034439;28;20210;-44
2023/09/19 10:39:19;;;;;;;9.20;5.05;;;;;;;;;;5034226;28;20232;-44
2023/09/19 10:41:53;;;;;;;8.65;5.20;;;;;;;;;;5034403;28;20240;-44
2023/09/19 10:44:25;;;;;;;11.80;5.30;;;;;;;;;;5033267;28;20270;-46
2023/09/19 10:46:53;;;;;;;8.48;5.00;;;;;;;;;;5034354;28;20209;-44
2023/09/19 10:49:22;;;;;;;11.50;4.90;;;;;;;;;;5034153;28;20216;-45
2023/09/19 10:51:55;;;;;;;8.77;5.28;;;;;;;;;;5033943;28;20684;-45
2023/09/19 10:54:26;;;;;;;9.55;5.85;;;;;;;;;;5034084;28;20694;-44
2023/09/19 10:56:54;;;;;;;11.23;5.55;;;;;;;;;;5034172;28;20204;-45
2023/09/19 10:59:21;;;;;;;9.13;5.22;;;;;;;;;;5033770;28;20221;-45
2023/09/19 11:01:56;;;;;;;9.45;5.45;;;;;;;;;;5032822;28;20211;-43
2023/09/19 11:04:33;;;;;;;9.85;5.90;;;;;;;;;;5032779;28;20274;-44
2023/09/19 11:07:16;;;;;;;9.65;5.63;;;;;;;;;;5033768;28;20606;-44
2023/09/19 11:09:53;;;;;;;9.18;5.28;;;;;;;;;;5034087;28;20188;-44
2023/09/19 11:12:45;;;;;;;10.48;5.35;;;;;;;;;;5033730;28;20197;-44
2023/09/19 11:15:51;;;;;;;11.07;5.90;;;;;;;;;;5034001;28;20200;-43
2023/09/19 11:18:54;;;;;;;9.25;5.78;;;;;;;;;;5033605;28;20204;-45
2023/09/19 11:21:29;;;;;;;9.98;5.53;;;;;;;;;;4972748;28;20265;-44
2023/09/19 11:24:12;;;;;;;8.43;5.68;;;;;;;;;;4972866;28;20607;-43
2023/09/19 11:26:48;;;;;;;8.30;5.72;;;;;;;;;;4972972;28;20206;-44
2023/09/19 11:29:25;;;;;;;12.82;5.47;;;;;;;;;;4972579;28;20689;-43
2023/09/19 11:31:55;;;;;;;9.10;5.80;;;;;;;;;;4966310;28;20753;-44
2023/09/19 11:34:44;;;;;;;7.05;5.65;;;;;;;;;;4971766;28;20338;-46
2023/09/19 11:37:14;;;;;;;11.27;5.72;;;;;;;;;;4971335;28;20222;-44
2023/09/19 11:40:17;;;;;;;8.25;5.97;;;;;;;;;;4971729;28;20242;-45
2023/09/19 11:42:53;;;;;;;17.70;7.15;;;;;;;;;;4959178;28;20238;-44
2023/09/19 11:46:01;;;;;;;13.25;6.40;;;;;;;;;;4958795;28;20230;-44
2023/09/19 11:48:27;;;;;;;9.60;6.13;;;;;;;;;;4971821;28;20232;-44
2023/09/19 11:50:56;;;;;;;8.98;5.97;;;;;;;;;;4971692;28;20222;-44
2023/09/19 11:53:24;;;;;;;8.98;5.97;;;;;;;;;;4956020;28;20367;-44
2023/09/19 11:55:52;;;;;;;8.60;6.55;;;;;;;;;;5009452;28;20227;-43
2023/09/19 11:58:20;;;;;;;8.07;6.13;;;;;;;;;;5035217;28;20240;-44
2023/09/19 12:00:54;;;;;;;11.30;6.15;;;;;;;;;;5051774;28;20621;-44
2023/09/19 12:03:21;;;;;;;8.85;5.95;;;;;;;;;;5052347;28;20684;-44
2023/09/19 12:05:49;;;;;;;8.23;5.90;;;;;;;;;;5034594;28;20230;-44
2023/09/19 12:08:16;;;;;;;15.00;9.23;;;;;;;;;;5052353;28;20314;-43
2023/09/19 12:10:48;;;;;;;12.75;7.05;;;;;;;;;;5052293;28;20763;-44
2023/09/19 12:13:17;;;;;;;8.60;5.97;;;;;;;;;;5052111;28;20220;-44
2023/09/19 12:15:47;;;;;;;12.32;6.07;;;;;;;;;;5051581;28;20747;-44
2023/09/19 12:18:30;;;;;;;8.77;6.22;;;;;;;;;;5051790;28;20259;-44
2023/09/19 12:20:58;;;;;;;10.32;6.53;;;;;;;;;;5052353;28;20257;-47
2023/09/19 12:23:28;;;;;;;13.43;7.10;;;;;;;;;;5052139;28;20307;-44
2023/09/19 12:25:56;;;;;;;8.38;5.93;;;;;;;;;;5052109;28;20227;-44
2023/09/19 12:28:26;;;;;;;11.02;6.30;;;;;;;;;;5052078;28;20228;-45
2023/09/19 12:30:57;;;;;;;12.88;7.28;;;;;;;;;;5051856;28;20235;-45
2023/09/19 12:33:25;;;;;;;12.43;6.65;;;;;;;;;;5051879;28;20692;-44
2023/09/19 12:35:53;;;;;;;9.88;6.80;;;;;;;;;;5052019;28;20571;-44
2023/09/19 12:38:35;;;;;;;9.40;7.25;;;;;;;;;;5051963;28;20373;-45
2023/09/19 12:41:02;;;;;;;10.73;7.35;;;;;;;;;;5051950;28;20242;-44
2023/09/19 12:43:34;;;;;;;10.05;6.80;;;;;;;;;;5051788;28;20315;-45
2023/09/19 12:46:02;;;;;;;12.25;7.43;;;;;;;;;;5025351;28;20270;-45
2023/09/19 12:48:31;;;;;;;9.82;7.53;;;;;;;;;;5031983;28;20231;-44
2023/09/19 12:51:10;;;;;;;13.13;7.55;;;;;;;;;;5032225;28;20220;-44
2023/09/19 12:53:40;;;;;;;12.43;7.55;;;;;;;;;;5032024;28;20221;-43
2023/09/19 12:56:10;;;;;;;13.38;7.97;;;;;;;;;;5034019;28;20231;-43
2023/09/19 12:58:49;;;;;;;10.90;7.72;;;;;;;;;;5035354;28;20220;-44
2023/09/19 13:01:17;;;;;;;15.32;8.30;;;;;;;;;;5035154;28;20236;-43
2023/09/19 13:03:45;;;;;;;13.43;8.52;;;;;;;;;;5035189;28;20764;-44
2023/09/19 13:06:16;;;;;;;10.63;7.28;;;;;;;;;;5035201;28;20705;-44
2023/09/19 13:08:49;;;;;;;12.52;7.85;;;;;;;;;;5018539;28;20220;-44
2023/09/19 13:11:20;;;;;;;12.20;8.00;;;;;;;;;;5035104;28;20697;-43
2023/09/19 13:14:08;;;;;;;12.65;7.47;;;;;;;;;;5034970;28;20224;-44
2023/09/19 13:16:55;;;;;;;10.95;8.00;;;;;;;;;;5031447;28;20239;-43
2023/09/19 13:19:49;;;;;;;13.98;8.07;;;;;;;;;;5055032;28;20239;-44
2023/09/19 13:22:48;;;;;;;12.52;8.32;;;;;;;;;;5054796;28;20232;-43
2023/09/19 13:25:19;;;;;;;13.07;8.13;;;;;;;;;;5055080;28;20223;-44
2023/09/19 13:27:54;;;;;;;13.50;8.38;;;;;;;;;;5054778;28;20234;-43
2023/09/19 13:30:26;;;;;;;13.50;8.23;;;;;;;;;;5054190;28;20256;-44
2023/09/19 13:33:06;;;;;;;14.13;8.77;;;;;;;;;;5054999;28;20227;-43
2023/09/19 13:35:33;;;;;;;12.43;8.30;;;;;;;;;;5055012;28;20250;-43
2023/09/19 13:38:01;;;;;;;15.35;8.98;;;;;;;;;;5054530;28;20224;-45
2023/09/19 13:40:31;;;;;;;13.63;9.65;;;;;;;;;;5054620;28;20232;-43
2023/09/19 13:42:59;;;;;;;15.23;9.18;;;;;;;;;;5054184;28;20606;-46
2023/09/19 13:45:26;;;;;;;15.32;9.02;;;;;;;;;;5049758;28;20223;-43
2023/09/19 13:47:54;;;;;;;15.95;9.32;;;;;;;;;;5034530;28;20278;-44
2023/09/19 13:50:24;;;;;;;13.38;8.38;;;;;;;;;;5034891;28;20643;-44
2023/09/19 13:52:51;;;;;;;17.45;9.30;;;;;;;;;;5033685;28;20225;-42
2023/09/19 13:55:21;;;;;;;14.02;9.02;;;;;;;;;;5034189;28;20221;-42
2023/09/19 13:57:50;;;;;;;19.30;9.48;;;;;;;;;;5034286;28;20263;-43
2023/09/19 14:00:17;;;;;;;15.02;10.48;;;;;;;;;;5039211;28;20732;-45
2023/09/19 14:02:45;;;;;;;16.35;10.73;;;;;;;;;;5050295;28;20845;-47
2023/09/19 14:05:14;;;;;;;12.93;9.57;;;;;;;;;;5046477;28;20233;-45
2023/09/19 14:07:45;;;;;;;17.00;9.40;;;;;;;;;;5050858;28;20231;-45
2023/09/19 14:10:13;;;;;;;10.55;7.68;;;;;;;;;;5051965;28;20234;-47
2023/09/19 14:12:43;;;;;;;10.52;6.93;;;;;;;;;;5052829;28;20242;-46
2023/09/19 14:15:10;;;;;;;11.68;7.60;;;;;;;;;;5050249;28;20531;-45
2023/09/19 14:17:38;;;;;;;12.77;7.00;;;;;;;;;;5032795;28;20224;-46
2023/09/19 14:20:07;;;;;;;9.43;6.97;;;;;;;;;;5032549;28;20693;-45
2023/09/19 14:22:34;;;;;;;13.32;6.82;;;;;;;;;;5049951;28;20216;-45
2023/09/19 14:25:04;;;;;;;10.30;6.97;;;;;;;;;;5052752;28;20297;-45
2023/09/19 14:27:31;;;;;;;14.02;6.43;;;;;;;;;;5053086;28;20216;-45
2023/09/19 14:29:58;;;;;;;11.77;7.10;;;;;;;;;;5052059;28;20278;-44
2023/09/19 14:32:26;;;;;;;9.38;6.13;;;;;;;;;;5052657;28;20224;-44
2023/09/19 14:34:53;;;;;;;9.38;6.03;;;;;;;;;;5053202;28;20236;-44
2023/09/19 14:37:21;;;;;;;8.55;5.93;;;;;;;;;;5052435;28;20650;-44
2023/09/19 14:39:48;;;;;;;10.13;6.40;;;;;;;;;;5052920;28;20239;-44
2023/09/19 14:42:17;;;;;;;10.00;5.93;;;;;;;;;;5052763;28;20258;-45
2023/09/19 14:44:47;;;;;;;10.45;5.90;;;;;;;;;;5052688;28;20295;-45
2023/09/19 14:47:16;;;;;;;9.43;6.50;;;;;;;;;;5051854;28;20289;-45
2023/09/19 14:49:44;;;;;;;9.35;6.63;;;;;;;;;;5035031;28;20239;-51
2023/09/19 14:52:15;;;;;;;8.75;6.55;;;;;;;;;;5051298;28;20525;-46
2023/09/19 14:54:43;;;;;;;10.90;6.78;;;;;;;;;;5052797;28;20299;-46
2023/09/19 14:57:13;;;;;;;10.82;6.85;;;;;;;;;;5042179;28;20232;-45
2023/09/19 14:59:41;;;;;;;11.30;6.65;;;;;;;;;;5045407;28;20228;-46
2023/09/19 15:02:09;;;;;;;9.57;6.10;;;;;;;;;;5048858;28;20231;-46
2023/09/19 15:04:40;;;;;;;10.85;5.93;;;;;;;;;;5051383;28;20234;-46